Latest Weather Observations for Smithton

IDT60801

Issued at 3:32 pm EST Saturday 29 April 2017 (issued every 30 minutes, with the page automatically refreshed every 10 minutes)

About weather observations | Map of weather stations | Latest weather observations for TAS | Other Formats
Station Details ID: 091292 Name: SMITHTON AERODROME Lat: -40.83 Lon: 145.08 Height: 7.5 m
Data from the previous 72 hours. | See also: Recent months at Smithton
Date/Time
EST
Temp
°C
App
Temp
°C
Dew
Point
°C
Rel
Hum
%
Delta-T
°C
Wind Press
QNH
hPa
Press
MSL
hPa
Rain since
9am
mm
Dir  Spd
km/h
Gust
km/h
Spd
kts
Gust
kts
29/03:30pm 14.8 10.5 10.6 76 2.2 SW 24 30 13 16 1019.4 - 0.0
29/03:00pm 15.1 9.7 10.9 76 2.2 SW 30 35 16 19 1019.2 1019.2 0.0
29/02:30pm 15.3 11.2 11.3 77 2.1 SSW 24 32 13 17 1018.9 - 0.0
29/02:00pm 16.0 10.7 11.4 74 2.5 WSW 30 35 16 19 1018.7 - 0.0
29/01:30pm 16.4 10.9 11.8 74 2.5 SW 32 39 17 21 1018.9 - 0.0
29/01:00pm 15.4 9.6 11.4 77 2.1 WSW 33 44 18 24 1019.1 - 0.0
29/12:30pm 15.8 10.2 12.0 78 2.1 WSW 33 41 18 22 1019.0 - 0.0
29/12:00pm 15.0 9.9 12.0 82 1.6 SW 30 35 16 19 1019.2 1019.2 0.0
29/11:30am 14.4 9.7 11.9 85 1.3 SSW 28 37 15 20 1019.6 - 0.0
29/11:00am 15.1 10.9 12.4 84 1.5 WSW 26 32 14 17 1019.6 - 0.0
29/10:30am 15.0 11.4 13.2 89 1.0 SW 24 33 13 18 1019.7 - 0.0
29/10:00am 13.7 9.1 12.3 91 0.8 SW 28 35 15 19 1019.6 - 0.0
29/09:30am 13.6 10.4 12.0 90 0.9 SW 20 30 11 16 1019.5 - 0.0
29/09:00am 13.5 10.1 12.4 93 0.6 WSW 22 30 12 16 1019.2 1019.2 1.6
29/08:30am 13.1 10.3 12.5 96 0.3 SW 19 26 10 14 1019.0 - 1.6
29/08:00am 12.5 9.3 12.0 97 0.3 WSW 20 28 11 15 1018.5 - 1.6
29/07:30am 12.4 9.4 11.8 96 0.3 WSW 19 22 10 12 1017.9 - 1.4
29/07:00am 11.9 9.1 11.4 97 0.3 W 17 24 9 13 1017.4 - 1.4
29/06:30am 12.0 8.8 11.4 96 0.3 WSW 19 22 10 12 1017.3 - 1.4
29/06:00am 12.6 8.3 12.0 96 0.3 WSW 26 33 14 18 1017.0 1017.0 1.4
29/05:30am 12.3 9.0 11.7 96 0.3 WSW 20 28 11 15 1016.8 - 1.4
29/05:00am 12.1 8.4 11.5 96 0.3 WSW 22 28 12 15 1016.7 - 1.4
29/04:30am 12.6 9.1 12.1 97 0.3 WSW 22 32 12 17 1016.4 - 1.4
29/04:00am 12.9 9.5 12.4 97 0.3 WSW 22 32 12 17 1016.4 - 1.2
29/03:30am 12.5 9.3 11.9 96 0.3 WSW 20 26 11 14 1016.3 - 1.2
29/03:00am 13.1 7.8 12.6 97 0.3 WSW 32 46 17 25 1016.4 1016.4 1.0
29/02:30am 13.3 8.5 12.8 97 0.3 WSW 30 37 16 20 1016.4 - 1.0
29/02:00am 13.6 8.9 13.1 97 0.3 W 30 39 16 21 1016.5 - 1.0
29/01:30am 13.6 9.3 13.1 97 0.3 WSW 28 39 15 21 1016.4 - 0.8
29/01:00am 13.5 9.9 13.0 97 0.3 W 24 33 13 18 1016.5 - 0.8
29/12:30am 13.5 10.6 12.9 96 0.3 WSW 20 28 11 15 1016.6 - 0.8
29/12:00am 13.6 9.6 13.0 96 0.3 WSW 26 39 14 21 1016.6 1016.6 0.8
 
Date/Time
EST
Temp
°C
App
Temp
°C
Dew
Point
°C
Rel
Hum
%
Delta-T
°C
Wind Press
QNH
hPa
Press
MSL
hPa
Rain since
9am
mm
Dir  Spd
km/h
Gust
km/h
Spd
kts
Gust
kts
28/11:30pm 13.6 10.0 13.0 96 0.3 WSW 24 32 13 17 1016.8 - 0.6
28/11:00pm 13.6 9.6 13.0 96 0.3 W 26 35 14 19 1016.8 - 0.6
28/10:30pm 13.5 9.8 12.7 95 0.4 WSW 24 33 13 18 1016.9 - 0.6
28/10:00pm 13.6 10.3 12.8 95 0.4 W 22 30 12 16 1017.1 - 0.6
28/09:30pm 13.7 10.5 13.1 96 0.3 W 22 28 12 15 1017.1 - 0.6
28/09:00pm 13.8 9.9 13.2 96 0.3 WSW 26 39 14 21 1017.0 1017.0 0.6
28/08:30pm 13.9 9.3 13.4 97 0.3 W 30 43 16 23 1017.0 - 0.6
28/08:00pm 13.9 10.4 13.3 96 0.3 W 24 32 13 17 1017.0 - 0.4
28/07:30pm 13.9 9.6 13.1 95 0.4 WSW 28 35 15 19 1017.1 - 0.4
28/07:00pm 14.1 9.1 13.5 96 0.3 WSW 32 43 17 23 1017.1 - 0.4
28/06:30pm 14.1 10.3 13.5 96 0.3 WSW 26 35 14 19 1017.0 - 0.2
28/06:00pm 14.2 10.0 13.4 95 0.4 W 28 35 15 19 1016.8 1016.8 0.2
28/05:30pm 14.1 9.8 13.1 94 0.6 W 28 39 15 21 1016.7 - 0.0
28/05:00pm 14.3 9.3 13.3 94 0.6 W 32 41 17 22 1016.5 - 0.0
28/04:30pm 14.4 10.1 13.3 93 0.6 WSW 28 35 15 19 1016.9 - 0.0
28/04:00pm 14.5 9.9 13.4 93 0.6 W 30 41 16 22 1016.9 - 0.0
28/03:30pm 15.3 11.6 13.8 91 0.8 WSW 26 39 14 21 1016.9 - 0.0
28/03:00pm 15.4 11.6 13.6 89 1.0 W 26 37 14 20 1017.0 1017.0 0.0
28/02:30pm 15.6 11.3 13.1 85 1.4 W 28 39 15 21 1017.2 - 0.0
28/02:00pm 15.4 9.8 12.2 81 1.7 W 33 48 18 26 1017.3 - 0.0
28/01:30pm 15.9 11.5 12.8 82 1.7 W 28 43 15 23 1017.5 - 0.0
28/01:00pm 16.0 12.0 13.1 83 1.6 W 26 33 14 18 1018.1 - 0.0
28/12:30pm 15.9 11.3 12.3 79 2.0 W 28 37 15 20 1018.3 - 0.0
28/12:00pm 15.7 11.9 12.5 81 1.8 WSW 24 32 13 17 1018.8 1018.8 0.0
28/11:30am 15.4 12.5 12.9 85 1.4 WSW 20 28 11 15 1019.2 - 0.0
28/11:00am 14.5 12.3 12.2 86 1.2 WSW 15 20 8 11 1019.4 - 0.0
28/10:30am 13.9 11.6 11.8 87 1.1 W 15 26 8 14 1019.5 - 0.0
28/10:00am 13.9 10.8 11.6 86 1.2 WSW 19 24 10 13 1019.6 - 0.0
28/09:30am 13.7 10.3 11.4 86 1.2 WSW 20 24 11 13 1019.5 - 0.0
28/09:00am 13.5 10.7 11.4 87 1.1 WSW 17 26 9 14 1019.2 1019.2 1.2
28/08:30am 12.9 10.8 11.3 90 0.8 WSW 13 17 7 9 1019.5 - 1.2
28/08:00am 12.6 11.2 10.8 89 0.9 W 9 11 5 6 1019.2 - 1.2
28/07:30am 12.6 10.0 10.7 88 1.0 SW 15 20 8 11 1018.9 - 1.2
28/07:00am 12.6 9.2 10.7 88 1.0 WSW 19 24 10 13 1018.7 - 1.2
28/06:30am 12.4 9.8 10.8 90 0.8 WSW 15 20 8 11 1018.4 - 1.2
28/06:00am 12.4 9.8 10.8 90 0.8 WSW 15 19 8 10 1018.2 1018.2 1.2
28/05:30am 12.5 9.3 11.4 93 0.6 WSW 19 22 10 12 1018.2 - 1.2
28/05:00am 12.5 10.2 11.9 96 0.3 WSW 15 20 8 11 1018.0 - 1.2
28/04:30am 12.7 10.1 12.1 96 0.3 WSW 17 22 9 12 1017.8 - 1.2
28/04:00am 12.5 10.2 11.9 96 0.3 WSW 15 19 8 10 1017.6 - 1.2
28/03:30am 12.5 9.9 12.0 97 0.3 WSW 17 19 9 10 1017.7 - 1.2
28/03:00am 12.5 9.9 12.0 97 0.3 WSW 17 20 9 11 1017.8 1017.8 1.2
28/02:30am 12.6 10.1 12.3 98 0.2 WSW 17 20 9 11 1017.9 - 1.2
28/02:00am 12.5 10.0 12.3 99 0.1 WSW 17 20 9 11 1018.1 - 1.2
28/01:30am 12.5 10.8 12.3 99 0.1 W 13 17 7 9 1017.9 - 1.2
28/01:00am 11.7 9.7 11.5 99 0.1 WSW 13 17 7 9 1018.2 - 1.2
28/12:30am 12.0 10.1 11.8 99 0.1 W 13 15 7 8 1018.5 - 1.0
28/12:00am 10.2 8.5 9.9 98 0.2 W 9 11 5 6 1018.4 1018.4 0.8
 
Date/Time
EST
Temp
°C
App
Temp
°C
Dew
Point
°C
Rel
Hum
%
Delta-T
°C
Wind Press
QNH
hPa
Press
MSL
hPa
Rain since
9am
mm
Dir  Spd
km/h
Gust
km/h
Spd
kts
Gust
kts
27/11:30pm 11.4 9.7 11.1 98 0.2 W 11 15 6 8 1018.5 - 0.8
27/11:00pm 11.9 11.1 11.6 98 0.2 W 7 13 4 7 1019.0 - 0.8
27/10:30pm 11.6 9.9 11.3 98 0.2 WSW 11 20 6 11 1019.0 - 0.8
27/10:00pm 11.4 9.3 11.1 98 0.2 W 13 17 7 9 1018.7 - 0.6
27/09:30pm 9.8 8.4 9.5 98 0.1 W 7 11 4 6 1018.9 - 0.6
27/09:00pm 9.0 7.5 8.5 97 0.2 W 6 7 3 4 1019.1 1019.1 0.6
27/08:30pm 9.6 8.1 9.1 97 0.2 W 7 9 4 5 1019.0 - 0.6
27/08:00pm 9.4 7.4 8.8 96 0.3 W 9 9 5 5 1019.1 - 0.6
27/07:30pm 10.1 8.3 9.3 95 0.4 W 9 11 5 6 1019.2 - 0.6
27/07:00pm 11.3 9.8 10.4 94 0.5 WSW 9 13 5 7 1019.3 - 0.6
27/06:30pm 11.1 9.0 9.9 92 0.6 WSW 11 13 6 7 1019.2 - 0.0
27/06:00pm 11.8 8.6 10.0 89 0.9 W 17 20 9 11 1019.3 1019.3 0.0
27/05:30pm 12.3 9.3 9.3 82 1.5 W 15 19 8 10 1019.3 - 0.0
27/05:00pm 12.8 10.3 9.8 82 1.5 W 13 17 7 9 1019.4 - 0.0
27/04:30pm 12.7 10.3 9.9 83 1.4 W 13 15 7 8 1019.4 - 0.0
27/04:00pm 12.9 10.3 9.4 79 1.8 W 13 15 7 8 1019.5 - 0.0
27/03:30pm 13.2 9.7 8.7 74 2.3 W 17 26 9 14 1019.5 - 0.0
27/03:00pm 13.1 9.0 8.0 71 2.5 W 19 24 10 13 1019.4 1019.4 0.0
27/02:30pm 13.7 9.4 7.9 68 2.9 W 20 24 11 13 1019.2 - 0.0
27/02:00pm 13.6 9.3 7.8 68 2.9 WSW 20 28 11 15 1019.6 - 0.0
27/01:30pm 13.2 9.0 7.6 69 2.7 WSW 19 24 10 13 1019.9 - 0.0
27/01:00pm 12.8 7.8 6.4 65 3.0 W 22 28 12 15 1020.6 - 0.0
27/12:30pm 13.0 8.8 7.5 69 2.7 WSW 19 24 10 13 1021.0 - 0.0
27/12:00pm 12.8 8.2 6.4 65 3.0 SW 20 28 11 15 1021.3 1021.3 0.0
27/11:30am 12.4 8.0 6.5 67 2.8 W 19 22 10 12 1021.4 - 0.0
27/11:00am 12.0 9.1 6.7 70 2.5 WSW 11 22 6 12 1021.6 - 0.0
27/10:30am 10.7 9.1 7.8 82 1.4 S 6 9 3 5 1021.6 - 0.0
27/10:00am 9.3 7.6 7.7 90 0.8 S 6 7 3 4 1021.7 - 0.0
27/09:30am 8.2 6.8 7.3 94 0.4 S 4 7 2 4 1021.6 - 0.0
27/09:00am 6.7 4.1 6.1 96 0.3 S 9 13 5 7 1021.9 1021.9 0.2
27/08:30am 5.7 2.9 5.3 97 0.2 S 9 11 5 6 1021.5 - 0.2
27/08:00am 4.9 1.2 4.6 98 0.1 S 13 17 7 9 1021.4 - 0.2
27/07:30am 2.5 -0.5 2.1 97 0.2 SSW 7 9 4 5 1021.3 - 0.2
27/07:00am 2.6 -0.7 2.2 97 0.2 SSW 9 11 5 6 1021.3 - 0.2
27/06:30am 1.7 -1.4 1.1 96 0.2 SSW 7 7 4 4 1021.1 - 0.2
27/06:00am 2.0 -1.1 1.4 96 0.2 SSW 7 9 4 5 1021.0 1021.0 0.2
27/05:30am 3.3 0.0 2.7 96 0.2 SSW 9 13 5 7 1020.9 - 0.2
27/05:00am 2.2 -2.0 1.5 95 0.3 SSW 13 15 7 8 1020.2 - 0.2
27/04:30am 3.1 -0.6 2.4 95 0.3 S 11 13 6 7 1020.1 - 0.2
27/04:00am 3.2 -0.5 2.5 95 0.3 SSW 11 11 6 6 1019.9 - 0.2
27/03:30am 3.0 -1.1 2.3 95 0.3 SSW 13 13 7 7 1019.9 - 0.2
27/03:00am 2.5 -1.7 1.6 94 0.3 SSW 13 15 7 8 1020.0 1020.0 0.2
27/02:30am 2.2 -2.1 1.2 93 0.4 SSW 13 13 7 7 1020.1 - 0.2
27/02:00am 3.0 -1.5 2.0 93 0.4 SSW 15 17 8 9 1020.1 - 0.2
27/01:30am 3.0 -1.5 2.0 93 0.4 SSW 15 17 8 9 1019.9 - 0.2
27/01:00am 3.3 -1.6 2.1 92 0.5 SSW 17 20 9 11 1019.7 - 0.2
27/12:30am 4.2 -0.2 2.9 91 0.5 S 15 19 8 10 1019.4 - 0.2
27/12:00am 4.1 0.5 2.8 91 0.5 S 11 15 6 8 1019.5 1019.5 0.2
 
Date/Time
EST
Temp
°C
App
Temp
°C
Dew
Point
°C
Rel
Hum
%
Delta-T
°C
Wind Press
QNH
hPa
Press
MSL
hPa
Rain since
9am
mm
Dir  Spd
km/h
Gust
km/h
Spd
kts
Gust
kts
26/11:30pm 3.6 -0.1 2.3 91 0.5 SSW 11 13 6 7 1019.4 - 0.2
26/11:00pm 3.6 -0.1 2.3 91 0.5 SSW 11 15 6 8 1019.2 - 0.2
26/10:30pm 3.8 -0.7 2.2 89 0.6 S 15 17 8 9 1019.0 - 0.2
26/10:00pm 4.6 1.0 2.8 88 0.7 S 11 15 6 8 1018.9 - 0.2
26/09:30pm 5.2 0.1 3.2 87 0.8 SSW 19 24 10 13 1018.3 - 0.2
26/09:00pm 6.1 1.0 3.9 86 0.9 SSW 20 28 11 15 1018.1 1018.1 0.2
26/08:30pm 6.6 0.8 4.4 86 0.9 SSW 24 32 13 17 1017.8 - 0.2
26/08:00pm 6.1 1.1 4.4 89 0.7 SSW 20 28 11 15 1017.1 - 0.2
26/07:30pm 6.2 0.0 4.5 89 0.7 SSW 26 32 14 17 1016.7 - 0.2
26/07:00pm 6.5 0.3 4.5 87 0.9 SSW 26 32 14 17 1016.6 - 0.2
26/06:30pm 6.9 1.1 4.4 84 1.1 SSW 24 30 13 16 1015.9 - 0.2
26/06:00pm 6.9 1.0 4.0 82 1.2 SSW 24 30 13 16 1015.5 1015.5 0.2
26/05:30pm 7.9 0.9 4.1 77 1.6 SSW 30 35 16 19 1015.1 - 0.2
26/05:00pm 8.7 2.5 4.5 75 1.9 SSW 26 33 14 18 1014.5 - 0.2
26/04:30pm 9.7 3.1 4.3 69 2.4 SSW 28 37 15 20 1013.9 - 0.2
26/04:00pm 9.9 2.4 4.5 69 2.4 S 33 48 18 26 1013.3 - 0.2

Other Formats:

Comma delimited format used in spreadsheet applications
http://www.bom.gov.au/fwo/IDT60801/IDT60801.94953.axf

JavaScript Object Notation format (JSON) in row-major order
http://www.bom.gov.au/fwo/IDT60801/IDT60801.94953.json